Time;durP1;ratioP1;P1;durP2;ratioP2;P2;SDS_P1;SDS_P2;PMS_P1;PMS_P2;Temp;Humidity;BMP_temperature;BMP_pressure;BME280_temperature;BME280_humidity;BME280_pressure;Samples;Min_cycle;Max_cycle;Signal;HPM_P1;HPM_P2
2022/10/30 00:02:05;;;;;;;12.07;4.90;;;19.90;99.90;;;;;;5032277;28;20599;-71
2022/10/30 00:04:31;;;;;;;11.07;5.03;;;19.90;99.90;;;;;;5032214;28;20434;-70
2022/10/30 00:06:57;;;;;;;10.07;5.13;;;20.00;99.90;;;;;;5032279;28;20171;-70
2022/10/30 00:09:22;;;;;;;12.00;5.73;;;20.00;99.90;;;;;;5032248;28;20506;-71
2022/10/30 00:11:48;;;;;;;8.73;5.17;;;20.00;99.90;;;;;;5032385;28;20274;-70
2022/10/30 00:14:13;;;;;;;12.10;4.90;;;19.90;99.90;;;;;;5031913;28;20232;-70
2022/10/30 00:16:39;;;;;;;8.80;4.83;;;19.90;99.90;;;;;;5032235;28;20570;-71
2022/10/30 00:19:04;;;;;;;9.47;5.17;;;19.90;99.90;;;;;;5031851;28;20278;-71
2022/10/30 00:21:30;;;;;;;10.60;5.57;;;19.90;99.90;;;;;;5032044;28;20163;-71
2022/10/30 00:23:55;;;;;;;10.03;4.53;;;19.80;99.90;;;;;;5032180;28;20195;-73
2022/10/30 00:26:22;;;;;;;11.17;5.27;;;19.80;99.90;;;;;;5032105;28;20175;-72
2022/10/30 00:28:52;;;;;;;13.33;5.20;;;19.80;99.90;;;;;;5032033;28;20635;-73
2022/10/30 00:31:18;;;;;;;10.73;4.93;;;19.80;99.90;;;;;;5031941;28;20521;-74
2022/10/30 00:33:51;;;;;;;9.20;5.53;;;19.80;99.90;;;;;;5032006;28;20479;-73
2022/10/30 00:36:18;;;;;;;7.83;3.90;;;19.80;99.90;;;;;;5031877;28;21059;-73
2022/10/30 00:38:43;;;;;;;9.00;4.70;;;19.80;99.90;;;;;;5031947;28;20549;-73
2022/10/30 00:41:21;;;;;;;16.37;5.80;;;19.80;99.90;;;;;;5031857;28;20512;-73
2022/10/30 00:43:47;;;;;;;14.77;4.50;;;19.80;99.90;;;;;;5031965;28;20647;-73
2022/10/30 00:46:22;;;;;;;8.17;4.40;;;19.80;99.90;;;;;;5031929;28;20442;-73
2022/10/30 00:48:56;;;;;;;10.33;4.97;;;19.80;99.90;;;;;;5031839;28;20171;-73
2022/10/30 00:51:23;;;;;;;9.30;5.00;;;19.80;99.90;;;;;;5031864;28;20433;-73
2022/10/30 00:53:49;;;;;;;12.10;5.37;;;19.80;99.90;;;;;;5031800;28;20771;-73
2022/10/30 00:56:17;;;;;;;8.43;5.53;;;19.80;99.90;;;;;;5031788;28;20502;-73
2022/10/30 00:58:48;;;;;;;10.07;4.53;;;19.80;99.90;;;;;;5031802;28;20465;-73
2022/10/30 01:01:18;;;;;;;10.40;5.53;;;19.70;99.90;;;;;;5031705;28;21012;-72
2022/10/30 01:03:45;;;;;;;7.27;4.60;;;19.70;99.90;;;;;;5031880;28;20430;-72
2022/10/30 01:06:14;;;;;;;9.60;6.00;;;19.80;99.90;;;;;;5031308;28;20535;-72
2022/10/30 01:08:40;;;;;;;11.23;5.73;;;19.70;99.90;;;;;;5031711;28;20422;-74
2022/10/30 01:11:08;;;;;;;7.33;4.73;;;19.70;99.90;;;;;;5031541;28;20426;-73
2022/10/30 01:13:35;;;;;;;7.80;5.70;;;19.70;99.90;;;;;;5031685;28;20782;-73
2022/10/30 01:16:28;;;;;;;9.83;4.50;;;19.70;99.90;;;;;;5031723;28;20492;-73
2022/10/30 01:19:09;;;;;;;14.03;5.33;;;19.70;99.90;;;;;;5031362;28;20912;-73
2022/10/30 01:22:00;;;;;;;9.70;4.87;;;19.60;99.90;;;;;;5031522;28;21032;-72
2022/10/30 01:25:04;;;;;;;8.50;5.03;;;19.60;99.90;;;;;;5031591;28;20433;-72
2022/10/30 01:27:56;;;;;;;6.93;4.53;;;19.60;99.90;;;;;;5034742;28;20422;-72
2022/10/30 01:30:52;;;;;;;11.30;5.03;;;19.50;99.90;;;;;;5034919;28;20434;-73
2022/10/30 05:31:20;;;;;;;10.13;5.57;;;17.10;99.90;;;;;;5530608;23;20499;-78
2022/10/30 05:33:45;;;;;;;14.37;5.57;;;17.10;99.90;;;;;;4938871;29;20533;-79
2022/10/30 05:36:11;;;;;;;13.70;6.47;;;17.10;99.90;;;;;;4938780;29;20175;-79
2022/10/30 05:38:36;;;;;;;9.43;6.07;;;17.10;99.90;;;;;;4938539;29;20207;-78
2022/10/30 05:41:02;;;;;;;15.27;5.90;;;17.10;99.90;;;;;;4938441;29;20551;-78
2022/10/30 05:43:28;;;;;;;9.50;5.47;;;17.00;99.90;;;;;;4938329;29;20183;-78
2022/10/30 05:45:53;;;;;;;18.00;7.90;;;17.10;99.90;;;;;;4938420;29;20252;-78
2022/10/30 05:48:19;;;;;;;13.17;6.10;;;17.10;99.90;;;;;;4938515;29;20589;-78
2022/10/30 05:50:44;;;;;;;11.93;6.60;;;17.10;99.90;;;;;;4938428;29;20660;-78
2022/10/30 05:53:10;;;;;;;16.33;5.43;;;17.10;99.90;;;;;;4938047;29;20183;-79
2022/10/30 05:55:35;;;;;;;9.53;6.53;;;17.00;99.90;;;;;;4937967;29;20186;-78
2022/10/30 05:58:03;;;;;;;13.27;5.40;;;17.00;99.90;;;;;;4937809;29;20176;-77
2022/10/30 06:00:31;;;;;;;13.83;7.10;;;17.00;99.90;;;;;;4937589;29;20187;-77
2022/10/30 06:03:02;;;;;;;9.57;5.80;;;17.00;99.90;;;;;;4937186;29;20423;-77
2022/10/30 06:05:30;;;;;;;10.50;6.23;;;17.00;99.90;;;;;;4937226;29;20975;-79
2022/10/30 06:07:55;;;;;;;9.67;5.40;;;17.00;99.90;;;;;;4937048;29;20442;-78
2022/10/30 06:10:25;;;;;;;9.50;5.77;;;17.00;99.90;;;;;;4936972;29;20435;-77
2022/10/30 06:13:03;;;;;;;10.10;6.23;;;16.90;99.90;;;;;;4936664;29;20191;-79
2022/10/30 06:15:30;;;;;;;11.77;6.10;;;16.90;99.90;;;;;;4937241;29;20430;-77
2022/10/30 06:17:55;;;;;;;13.50;7.37;;;16.90;99.90;;;;;;4936896;29;20447;-77
2022/10/30 06:20:24;;;;;;;11.90;7.47;;;16.90;99.90;;;;;;4936179;29;20537;-78
2022/10/30 06:22:57;;;;;;;10.20;7.13;;;16.90;99.90;;;;;;4937019;29;20426;-79
2022/10/30 06:25:23;;;;;;;11.67;6.00;;;16.90;99.90;;;;;;4935835;29;20485;-78
2022/10/30 06:27:50;;;;;;;13.40;6.17;;;16.90;99.90;;;;;;4936661;29;20551;-77
2022/10/30 06:30:15;;;;;;;18.47;7.80;;;16.90;99.90;;;;;;4937202;29;20439;-77
2022/10/30 06:32:41;;;;;;;8.73;5.40;;;16.90;99.90;;;;;;4955276;28;20890;-78
2022/10/30 06:35:07;;;;;;;12.13;6.77;;;16.90;99.90;;;;;;4955436;28;20194;-76
2022/10/30 06:37:33;;;;;;;10.10;6.73;;;16.90;99.90;;;;;;4955912;28;20553;-78
2022/10/30 06:39:59;;;;;;;13.90;7.17;;;16.80;99.90;;;;;;4955533;28;20482;-81
2022/10/30 06:42:24;;;;;;;7.50;5.57;;;16.90;99.90;;;;;;4955807;28;20170;-80
2022/10/30 06:44:50;;;;;;;14.60;7.10;;;16.80;99.90;;;;;;4955488;28;20426;-82
2022/10/30 06:47:16;;;;;;;22.07;7.40;;;16.80;99.90;;;;;;4954507;28;20642;-76
2022/10/30 06:49:41;;;;;;;18.43;6.33;;;16.80;99.90;;;;;;4955630;28;20183;-76
2022/10/30 06:52:07;;;;;;;9.50;6.53;;;16.70;99.90;;;;;;4955544;28;20192;-76
2022/10/30 06:54:33;;;;;;;19.40;7.30;;;16.70;99.90;;;;;;4955426;28;20175;-76
2022/10/30 06:56:58;;;;;;;12.83;6.17;;;16.70;99.90;;;;;;4955232;28;20273;-77
2022/10/30 06:59:24;;;;;;;9.60;5.80;;;16.60;99.90;;;;;;4955081;28;20276;-77
2022/10/30 07:01:50;;;;;;;11.80;6.60;;;16.60;99.90;;;;;;4955106;28;20182;-81
2022/10/30 07:04:15;;;;;;;14.57;6.90;;;16.50;99.90;;;;;;4955473;28;20616;-78
2022/10/30 07:06:41;;;;;;;16.13;7.60;;;16.40;99.90;;;;;;4954962;28;20465;-79
2022/10/30 07:09:06;;;;;;;11.90;7.00;;;16.40;99.90;;;;;;4953621;28;20269;-74
2022/10/30 07:11:32;;;;;;;10.93;7.00;;;16.40;99.90;;;;;;4954918;28;20274;-74
2022/10/30 07:13:57;;;;;;;16.50;7.60;;;16.40;99.90;;;;;;4955124;28;20175;-75
2022/10/30 07:16:23;;;;;;;14.23;6.83;;;16.40;99.90;;;;;;4954893;28;20217;-75
2022/10/30 07:18:49;;;;;;;11.00;8.30;;;16.40;99.90;;;;;;4954478;28;20340;-74
2022/10/30 07:21:15;;;;;;;13.73;7.10;;;16.50;99.90;;;;;;4954773;28;20178;-74
2022/10/30 07:23:41;;;;;;;18.57;7.23;;;16.50;99.90;;;;;;4953649;28;20429;-73
2022/10/30 07:26:06;;;;;;;20.10;7.87;;;16.60;99.90;;;;;;4954573;28;20599;-74
2022/10/30 07:28:32;;;;;;;10.27;6.90;;;16.70;99.90;;;;;;4955047;28;20166;-79
2022/10/30 07:30:58;;;;;;;12.00;7.07;;;16.90;99.90;;;;;;4954602;28;20238;-77
2022/10/30 07:33:23;;;;;;;14.13;6.60;;;16.90;99.90;;;;;;4954729;28;20426;-78
2022/10/30 07:35:49;;;;;;;9.33;7.07;;;17.10;99.90;;;;;;4954463;28;20179;-77
2022/10/30 07:38:16;;;;;;;11.40;7.53;;;17.20;99.90;;;;;;4935378;28;20183;-77
2022/10/30 07:40:42;;;;;;;15.53;7.73;;;17.30;99.90;;;;;;4935624;29;20185;-77
2022/10/30 07:43:12;;;;;;;8.97;6.53;;;17.50;99.90;;;;;;4932859;29;20989;-78
2022/10/30 07:45:38;;;;;;;12.73;6.80;;;17.60;99.90;;;;;;4918951;29;20436;-76
2022/10/30 07:48:04;;;;;;;15.17;7.97;;;17.80;99.90;;;;;;4916265;29;20995;-77
2022/10/30 07:50:30;;;;;;;12.03;6.23;;;17.90;99.90;;;;;;4916268;29;20482;-76
2022/10/30 07:52:55;;;;;;;9.63;6.83;;;18.10;99.90;;;;;;4916404;29;20448;-77
2022/10/30 07:55:21;;;;;;;11.20;5.80;;;18.20;99.90;;;;;;4916535;29;20438;-74
2022/10/30 07:57:47;;;;;;;14.67;6.70;;;18.30;99.90;;;;;;4929115;29;20641;-75
2022/10/30 08:00:13;;;;;;;13.50;7.57;;;18.40;99.90;;;;;;4935208;29;20262;-77
2022/10/30 08:02:39;;;;;;;14.10;6.43;;;18.60;99.90;;;;;;4934743;29;20237;-81
2022/10/30 08:05:05;;;;;;;15.87;7.73;;;18.70;99.90;;;;;;4935076;29;20435;-76
2022/10/30 08:07:32;;;;;;;13.63;7.70;;;18.80;99.90;;;;;;4930879;29;20794;-77
2022/10/30 08:09:58;;;;;;;12.73;7.00;;;18.90;99.90;;;;;;4919589;29;20440;-76
2022/10/30 08:12:25;;;;;;;14.03;6.70;;;19.00;99.90;;;;;;4927637;29;20790;-75
2022/10/30 08:14:51;;;;;;;13.17;6.90;;;19.10;99.90;;;;;;4930095;29;20231;-77
2022/10/30 08:17:17;;;;;;;18.27;6.17;;;19.10;99.90;;;;;;4930745;29;20523;-79
2022/10/30 08:19:42;;;;;;;11.10;6.40;;;19.20;99.90;;;;;;4919181;29;20562;-80
2022/10/30 08:22:09;;;;;;;14.07;7.60;;;19.30;99.90;;;;;;4916008;29;20435;-78
2022/10/30 08:24:35;;;;;;;25.63;7.53;;;19.40;99.90;;;;;;4915631;29;20540;-77
2022/10/30 08:27:01;;;;;;;16.23;7.27;;;19.50;99.90;;;;;;4916037;29;20431;-78
2022/10/30 08:29:26;;;;;;;11.57;7.43;;;19.60;99.90;;;;;;4923510;29;20191;-77
2022/10/30 08:31:52;;;;;;;12.67;5.70;;;19.70;99.90;;;;;;4928444;29;20543;-77
2022/10/30 08:34:18;;;;;;;12.10;6.47;;;19.80;99.90;;;;;;4931736;29;20179;-77
2022/10/30 08:36:43;;;;;;;13.33;5.57;;;19.80;99.90;;;;;;4938973;29;20274;-75
2022/10/30 08:39:09;;;;;;;9.60;5.40;;;19.80;99.90;;;;;;4938371;29;20218;-80
2022/10/30 08:41:34;;;;;;;10.93;5.80;;;19.90;99.90;;;;;;4938774;29;20178;-83
2022/10/30 08:44:00;;;;;;;12.50;6.63;;;19.90;99.90;;;;;;4938542;29;20171;-77
2022/10/30 08:46:26;;;;;;;15.77;6.77;;;19.80;99.90;;;;;;4930168;29;20203;-76
2022/10/30 08:48:53;;;;;;;10.50;6.10;;;19.90;99.90;;;;;;4929094;29;20249;-79
2022/10/30 08:51:19;;;;;;;14.20;5.83;;;19.80;99.90;;;;;;4927010;29;20652;-79
2022/10/30 08:53:47;;;;;;;11.50;5.70;;;19.90;99.90;;;;;;4927953;29;20427;-79
2022/10/30 08:56:13;;;;;;;9.30;5.40;;;19.90;99.90;;;;;;4927745;29;20682;-85
2022/10/30 08:58:38;;;;;;;18.53;6.10;;;19.80;99.90;;;;;;4927913;29;20463;-76
2022/10/30 09:01:04;;;;;;;11.50;5.00;;;19.80;99.90;;;;;;4928424;29;20179;-75
2022/10/30 09:03:29;;;;;;;17.63;5.60;;;19.90;99.90;;;;;;4928923;29;20266;-75
2022/10/30 09:05:58;;;;;;;16.23;5.00;;;20.00;99.90;;;;;;4926273;29;20180;-80
2022/10/30 09:08:24;;;;;;;11.33;5.80;;;20.10;99.90;;;;;;4927881;29;20183;-83
2022/10/30 09:10:54;;;;;;;12.70;5.53;;;20.20;99.90;;;;;;4929047;29;20431;-85
2022/10/30 09:13:20;;;;;;;10.23;5.93;;;20.30;99.90;;;;;;4929297;29;20653;-74
2022/10/30 09:15:45;;;;;;;19.17;6.03;;;20.30;99.90;;;;;;4936224;29;20435;-84
2022/10/30 09:18:11;;;;;;;11.80;5.27;;;20.40;99.90;;;;;;4934987;29;20492;-84
2022/10/30 09:20:37;;;;;;;20.23;6.30;;;20.50;99.90;;;;;;4930344;29;20211;-84
2022/10/30 09:23:03;;;;;;;14.83;6.40;;;20.50;99.90;;;;;;4928078;29;20179;-77
2022/10/30 09:25:28;;;;;;;12.80;5.20;;;20.50;99.90;;;;;;4930014;29;20440;-74
2022/10/30 09:27:54;;;;;;;9.30;5.03;;;20.60;99.90;;;;;;4918865;29;20195;-74
2022/10/30 09:30:20;;;;;;;9.40;4.93;;;20.70;99.90;;;;;;4917601;29;20190;-76
2022/10/30 09:32:45;;;;;;;11.03;5.00;;;20.70;99.90;;;;;;4918768;29;20595;-76
2022/10/30 09:35:11;;;;;;;6.83;4.90;;;20.70;99.90;;;;;;4919395;29;20574;-75
2022/10/30 09:37:38;;;;;;;11.33;4.97;;;20.70;99.90;;;;;;4919387;29;20183;-76
2022/10/30 09:40:05;;;;;;;8.03;5.03;;;20.70;99.90;;;;;;4919499;29;20519;-75
2022/10/30 09:42:48;;;;;;;11.80;5.90;;;20.70;99.90;;;;;;4918783;29;20428;-75
2022/10/30 09:45:41;;;;;;;12.53;5.73;;;20.80;99.90;;;;;;4919479;29;20450;-76
2022/10/30 09:48:18;;;;;;;15.30;6.27;;;20.90;99.90;;;;;;4918822;29;20804;-75
2022/10/30 09:51:02;;;;;;;13.40;5.80;;;20.90;99.90;;;;;;4919428;29;20427;-75
2022/10/30 09:53:44;;;;;;;13.37;6.00;;;21.00;99.90;;;;;;4919544;29;20583;-75
2022/10/30 09:56:35;;;;;;;10.00;5.90;;;21.10;99.90;;;;;;4919358;29;20470;-76
2022/10/30 09:59:03;;;;;;;13.10;5.47;;;21.20;99.90;;;;;;4919343;29;20979;-75
2022/10/30 10:01:38;;;;;;;11.57;5.83;;;21.40;99.90;;;;;;4919205;29;20427;-76
2022/10/30 10:04:17;;;;;;;13.90;5.97;;;21.40;99.90;;;;;;4918754;29;20438;-75
2022/10/30 10:06:47;;;;;;;11.97;6.03;;;21.40;99.90;;;;;;4918810;29;20431;-76
2022/10/30 10:09:22;;;;;;;9.33;4.97;;;21.30;99.90;;;;;;4918525;29;20427;-76
2022/10/30 10:11:54;;;;;;;9.53;5.40;;;21.00;99.90;;;;;;4942261;29;20504;-75
2022/10/30 10:14:27;;;;;;;9.50;5.50;;;21.10;99.90;;;;;;4957584;28;20825;-76
2022/10/30 10:16:55;;;;;;;8.47;5.53;;;21.20;99.90;;;;;;4956974;28;20437;-75
2022/10/30 10:19:32;;;;;;;9.93;5.47;;;21.20;99.90;;;;;;4956941;28;20512;-76
2022/10/30 10:22:01;;;;;;;12.90;5.60;;;21.40;99.90;;;;;;4957101;28;20444;-76
2022/10/30 10:24:38;;;;;;;16.17;6.50;;;21.50;99.90;;;;;;4957163;28;20789;-76
2022/10/30 10:27:32;;;;;;;10.00;5.00;;;21.40;99.90;;;;;;4956857;28;20436;-75
2022/10/30 10:30:11;;;;;;;16.50;5.73;;;21.50;99.90;;;;;;4956904;28;20781;-76
2022/10/30 10:33:32;;;;;;;11.57;5.20;;;21.50;99.90;;;;;;4956739;28;20465;-76
2022/10/30 10:36:28;;;;;;;9.27;4.73;;;21.60;99.90;;;;;;4910239;28;20438;-76
2022/10/30 10:39:17;;;;;;;10.40;4.63;;;21.70;99.90;;;;;;4956742;28;20521;-76
2022/10/30 10:42:16;;;;;;;17.53;6.30;;;21.70;99.90;;;;;;4956714;28;20569;-76
2022/10/30 10:45:24;;;;;;;9.00;4.60;;;21.80;99.90;;;;;;4956947;28;20500;-76
2022/10/30 10:48:26;;;;;;;13.20;6.33;;;21.80;99.90;;;;;;4917716;29;20526;-76
2022/10/30 10:51:00;;;;;;;11.23;5.80;;;21.80;99.90;;;;;;4916912;29;20431;-76
2022/10/30 10:53:31;;;;;;;10.33;5.53;;;21.90;99.90;;;;;;4916759;29;20523;-76
2022/10/30 10:55:59;;;;;;;8.20;5.40;;;21.90;99.90;;;;;;4917627;29;20491;-76
2022/10/30 10:58:40;;;;;;;12.13;4.77;;;22.00;99.90;;;;;;4931006;29;20435;-76
2022/10/30 11:01:14;;;;;;;16.53;6.13;;;22.10;99.90;;;;;;4917430;29;20494;-76
2022/10/30 11:04:13;;;;;;;9.10;5.17;;;22.20;99.90;;;;;;4915985;29;20428;-76
2022/10/30 11:06:41;;;;;;;8.63;5.00;;;22.20;99.90;;;;;;4917275;29;20950;-76
2022/10/30 11:09:18;;;;;;;12.40;5.80;;;22.30;99.90;;;;;;4915982;29;20442;-76
2022/10/30 11:11:48;;;;;;;11.30;6.00;;;22.30;99.90;;;;;;4917313;29;20792;-76
2022/10/30 11:14:20;;;;;;;13.07;5.13;;;22.40;99.90;;;;;;4917139;29;20756;-76
2022/10/30 11:17:07;;;;;;;16.67;6.23;;;22.40;99.90;;;;;;4917205;29;20439;-76
2022/10/30 11:19:32;;;;;;;10.57;5.87;;;22.50;99.90;;;;;;4916940;29;20534;-76
2022/10/30 11:21:59;;;;;;;11.03;6.60;;;22.50;99.90;;;;;;4916902;29;20854;-76
2022/10/30 11:24:31;;;;;;;11.83;6.17;;;22.60;99.90;;;;;;4930219;28;20179;-77
2022/10/30 11:27:14;;;;;;;9.80;5.20;;;22.70;99.90;;;;;;4934051;29;20445;-81
2022/10/30 11:29:47;;;;;;;11.50;5.17;;;22.80;99.90;;;;;;4923376;29;20427;-82
2022/10/30 11:32:21;;;;;;;11.80;5.67;;;22.80;99.90;;;;;;4919470;29;20517;-87
2022/10/30 11:35:08;;;;;;;12.10;5.53;;;22.90;99.90;;;;;;4935569;29;20430;-78
2022/10/30 11:37:36;;;;;;;10.27;5.13;;;23.00;99.90;;;;;;4935105;29;20426;-90
2022/10/30 11:40:21;;;;;;;12.97;4.37;;;23.10;99.90;;;;;;4934812;29;20502;-81
2022/10/30 11:42:56;;;;;;;10.33;5.27;;;23.20;99.90;;;;;;4935590;29;20926;-82
2022/10/30 11:45:40;;;;;;;13.13;5.10;;;23.20;99.90;;;;;;4936277;29;20430;-82
2022/10/30 11:48:27;;;;;;;12.73;4.63;;;23.30;99.90;;;;;;4936315;29;20500;-78
2022/10/30 11:50:58;;;;;;;10.37;4.13;;;23.40;99.90;;;;;;4935643;29;20938;-75
2022/10/30 11:53:33;;;;;;;7.30;5.40;;;23.30;99.90;;;;;;4936135;29;20419;-87
2022/10/30 11:56:02;;;;;;;7.43;4.50;;;23.40;99.90;;;;;;4936746;29;20474;-80
2022/10/30 11:58:35;;;;;;;17.30;5.50;;;23.40;99.90;;;;;;4935991;29;20490;-80
2022/10/30 12:01:18;;;;;;;11.63;6.80;;;23.50;99.90;;;;;;4935420;29;20478;-84
2022/10/30 12:03:44;;;;;;;17.43;7.70;;;23.50;99.90;;;;;;4935709;29;20430;-92
2022/10/30 12:06:22;;;;;;;17.47;7.67;;;23.40;99.90;;;;;;4934176;29;20419;-82
2022/10/30 12:09:02;;;;;;;16.23;5.57;;;23.40;99.90;;;;;;4935330;29;20171;-83
2022/10/30 12:11:33;;;;;;;14.87;6.70;;;23.30;99.90;;;;;;4934982;29;20764;-81
2022/10/30 12:14:00;;;;;;;15.93;6.07;;;23.30;99.90;;;;;;4935010;29;20423;-80
2022/10/30 12:16:27;;;;;;;16.50;6.93;;;23.30;99.90;;;;;;4935731;29;20426;-86
2022/10/30 12:18:58;;;;;;;10.70;5.40;;;23.30;99.90;;;;;;4935746;29;20466;-87
2022/10/30 12:21:50;;;;;;;12.50;4.90;;;23.40;99.90;;;;;;5069781;28;20929;-82
2022/10/30 12:24:24;;;;;;;11.43;5.43;;;23.40;99.90;;;;;;5069520;28;20539;-87
2022/10/30 12:26:53;;;;;;;7.27;4.20;;;23.40;99.90;;;;;;5069592;28;20428;-78
2022/10/30 12:29:23;;;;;;;15.13;5.30;;;23.40;99.90;;;;;;5069139;28;20471;-87
2022/10/30 12:32:01;;;;;;;7.53;4.70;;;23.30;99.90;;;;;;5069461;28;20424;-79
2022/10/30 12:34:50;;;;;;;8.13;4.60;;;23.40;99.90;;;;;;5069296;28;20447;-84
2022/10/30 12:37:28;;;;;;;13.90;7.07;;;23.50;99.90;;;;;;5069369;28;20453;-82
2022/10/30 12:40:13;;;;;;;8.00;4.43;;;23.40;99.90;;;;;;5068741;28;20791;-79
2022/10/30 12:42:57;;;;;;;6.57;4.20;;;23.40;99.90;;;;;;5069131;28;20756;-80
2022/10/30 12:45:30;;;;;;;9.10;4.07;;;23.40;99.90;;;;;;5069101;28;20471;-78
2022/10/30 12:48:07;;;;;;;21.23;5.90;;;23.40;99.80;;;;;;5068521;28;20428;-82
2022/10/30 12:51:01;;;;;;;8.03;4.20;;;23.30;99.90;;;;;;5068393;28;20432;-81
2022/10/30 12:53:35;;;;;;;13.33;5.27;;;23.40;99.90;;;;;;5068027;28;20429;-76
2022/10/30 12:56:24;;;;;;;11.40;4.00;;;23.50;99.90;;;;;;5068700;28;20440;-75
2022/10/30 12:59:28;;;;;;;9.77;4.90;;;23.50;98.70;;;;;;5068084;28;20474;-81
2022/10/30 13:02:25;;;;;;;8.07;4.73;;;23.40;99.00;;;;;;5068523;28;20539;-78
2022/10/30 13:04:56;;;;;;;16.10;7.10;;;23.40;99.40;;;;;;5066436;28;20478;-79
2022/10/30 13:07:43;;;;;;;14.60;5.30;;;23.30;99.70;;;;;;5068473;28;20417;-79
2022/10/30 13:10:37;;;;;;;14.43;5.50;;;23.30;99.80;;;;;;5068106;28;20478;-79
2022/10/30 13:13:13;;;;;;;9.70;5.17;;;23.30;99.90;;;;;;5068108;28;20433;-76
2022/10/30 13:15:57;;;;;;;8.53;4.20;;;23.30;98.60;;;;;;5068115;28;20429;-77
2022/10/30 13:18:25;;;;;;;9.30;6.10;;;23.20;98.30;;;;;;5068132;28;20433;-79
2022/10/30 13:21:09;;;;;;;7.67;4.13;;;23.20;99.00;;;;;;5068038;28;21575;-80
2022/10/30 13:23:44;;;;;;;13.30;5.47;;;23.30;98.80;;;;;;5067762;28;20412;-80
2022/10/30 13:26:37;;;;;;;7.87;3.90;;;23.20;99.30;;;;;;5067851;28;20429;-77
2022/10/30 13:29:29;;;;;;;10.00;4.03;;;23.20;99.90;;;;;;5067228;28;20432;-84
2022/10/30 13:32:08;;;;;;;9.20;4.13;;;23.10;99.90;;;;;;5055679;28;20509;-79
2022/10/30 13:34:58;;;;;;;10.00;4.97;;;23.10;99.90;;;;;;5054068;28;20504;-78
2022/10/30 13:37:48;;;;;;;6.43;3.87;;;23.10;99.90;;;;;;5054526;28;20433;-78
2022/10/30 13:40:37;;;;;;;11.43;4.33;;;23.10;99.90;;;;;;5054517;28;20487;-80
2022/10/30 13:43:29;;;;;;;13.67;5.10;;;23.00;99.90;;;;;;5054475;28;20420;-77
2022/10/30 13:46:16;;;;;;;11.53;4.50;;;22.90;99.90;;;;;;5053880;28;20453;-83
2022/10/30 13:49:11;;;;;;;5.77;4.40;;;22.90;99.90;;;;;;5054221;28;20430;-85
2022/10/30 13:51:42;;;;;;;8.70;4.20;;;22.90;99.90;;;;;;5054512;28;20429;-84
2022/10/30 13:54:29;;;;;;;9.27;4.90;;;22.90;99.90;;;;;;5054047;28;20429;-75
2022/10/30 13:56:58;;;;;;;7.67;4.13;;;22.90;99.90;;;;;;5053962;28;20414;-80
2022/10/30 13:59:48;;;;;;;8.20;4.73;;;22.90;99.90;;;;;;5053903;28;20425;-83
2022/10/30 14:02:26;;;;;;;11.83;4.97;;;22.80;99.90;;;;;;5054369;28;20849;-85
2022/10/30 14:05:18;;;;;;;9.03;4.30;;;22.80;99.90;;;;;;5053623;28;20496;-85
2022/10/30 14:08:02;;;;;;;10.30;5.30;;;22.80;99.90;;;;;;5052940;28;20440;-82
2022/10/30 14:10:39;;;;;;;10.83;5.40;;;22.80;99.90;;;;;;5053680;28;20418;-79
2022/10/30 14:13:25;;;;;;;13.87;4.93;;;22.80;99.90;;;;;;5053806;28;20808;-82
2022/10/30 14:15:54;;;;;;;14.07;4.33;;;22.70;99.90;;;;;;5053946;28;20911;-81
2022/10/30 14:18:26;;;;;;;11.90;5.23;;;22.70;99.90;;;;;;5052741;28;20862;-84
2022/10/30 14:20:56;;;;;;;10.10;5.40;;;22.70;99.90;;;;;;5053023;28;20485;-81
2022/10/30 14:23:34;;;;;;;11.73;4.90;;;22.60;99.90;;;;;;5053861;28;20504;-83
2022/10/30 14:26:05;;;;;;;8.40;4.30;;;22.70;99.90;;;;;;5053829;28;20851;-84
2022/10/30 14:28:33;;;;;;;13.33;5.30;;;22.60;99.90;;;;;;5053194;28;21230;-84
2022/10/30 14:31:15;;;;;;;11.20;5.17;;;22.60;99.90;;;;;;5053694;28;20425;-80
2022/10/30 14:33:48;;;;;;;8.77;4.43;;;22.60;99.90;;;;;;5053540;28;20501;-83
2022/10/30 14:36:24;;;;;;;9.97;5.00;;;22.50;99.90;;;;;;5053715;28;20425;-80
2022/10/30 14:38:57;;;;;;;10.03;5.07;;;22.50;99.90;;;;;;5053015;28;20425;-78
2022/10/30 14:41:32;;;;;;;11.27;4.90;;;22.50;99.90;;;;;;5052658;28;20472;-77
2022/10/30 14:44:27;;;;;;;12.63;4.90;;;22.50;99.90;;;;;;5052353;28;20785;-82
2022/10/30 14:47:08;;;;;;;7.40;4.90;;;22.40;99.90;;;;;;5053303;28;20496;-81
2022/10/30 14:49:47;;;;;;;14.30;4.90;;;22.30;99.90;;;;;;5053205;28;20811;-79
2022/10/30 14:52:37;;;;;;;12.00;5.97;;;22.30;99.90;;;;;;5053336;28;20520;-81
2022/10/30 14:55:17;;;;;;;13.63;5.20;;;22.20;99.90;;;;;;5053098;28;20900;-79
2022/10/30 14:57:52;;;;;;;10.77;5.30;;;22.20;99.90;;;;;;5053117;28;20467;-80
2022/10/30 15:00:24;;;;;;;8.13;5.00;;;22.10;99.90;;;;;;5052915;28;20525;-80
2022/10/30 15:02:57;;;;;;;13.37;6.30;;;22.00;99.90;;;;;;5053054;28;20414;-84
2022/10/30 15:05:51;;;;;;;11.77;5.70;;;21.90;99.90;;;;;;5053006;28;20437;-81
2022/10/30 15:08:37;;;;;;;15.97;5.70;;;21.90;99.90;;;;;;5053029;28;20544;-80
2022/10/30 15:11:25;;;;;;;9.17;6.33;;;21.80;99.90;;;;;;5052870;28;20834;-78
2022/10/30 15:13:58;;;;;;;14.90;5.80;;;21.80;99.90;;;;;;5053014;28;20429;-79
2022/10/30 15:16:26;;;;;;;17.20;6.07;;;21.80;99.90;;;;;;5052710;28;20516;-77
2022/10/30 15:19:05;;;;;;;8.77;5.60;;;21.70;99.90;;;;;;5052359;28;20483;-77
2022/10/30 15:21:44;;;;;;;7.77;5.40;;;21.70;99.90;;;;;;5050940;28;20485;-76
2022/10/30 15:24:16;;;;;;;14.30;5.67;;;21.60;99.90;;;;;;5051870;28;20496;-78
2022/10/30 15:26:47;;;;;;;8.47;5.17;;;21.60;99.90;;;;;;5051779;28;20869;-79
2022/10/30 15:29:18;;;;;;;13.30;5.00;;;21.50;99.90;;;;;;5051732;28;20566;-77
2022/10/30 15:31:43;;;;;;;7.93;4.80;;;21.40;99.90;;;;;;5051648;28;20426;-77
2022/10/30 15:34:21;;;;;;;6.43;4.30;;;21.40;99.90;;;;;;5051686;28;20908;-77
2022/10/30 15:36:47;;;;;;;13.27;4.60;;;21.40;99.90;;;;;;5051752;28;20535;-77
2022/10/30 15:39:14;;;;;;;9.33;5.70;;;21.30;99.90;;;;;;5052283;28;20421;-79
2022/10/30 15:41:55;;;;;;;11.20;7.03;;;21.30;99.90;;;;;;5052221;28;20275;-79
2022/10/30 15:44:37;;;;;;;18.90;9.17;;;21.20;99.90;;;;;;5052378;28;20508;-81
2022/10/30 15:47:10;;;;;;;18.80;10.00;;;21.20;99.90;;;;;;5052109;28;20479;-77
2022/10/30 15:49:38;;;;;;;16.57;8.50;;;21.10;99.90;;;;;;5052326;28;20923;-79
2022/10/30 15:52:23;;;;;;;13.10;8.50;;;21.10;99.90;;;;;;5052794;28;20896;-80
2022/10/30 15:54:59;;;;;;;15.23;9.40;;;21.00;99.90;;;;;;5052323;28;20459;-82
2022/10/30 15:57:51;;;;;;;21.60;12.83;;;21.00;99.90;;;;;;5052396;28;20425;-84
2022/10/30 16:00:39;;;;;;;28.60;15.20;;;20.90;99.90;;;;;;5052501;28;20622;-82
2022/10/30 16:03:12;;;;;;;19.30;11.87;;;20.80;99.90;;;;;;5051510;28;20422;-76
2022/10/30 16:05:37;;;;;;;12.80;9.73;;;20.80;99.90;;;;;;5048102;28;20818;-76
2022/10/30 16:08:13;;;;;;;12.20;7.20;;;20.70;99.90;;;;;;5051705;28;20455;-81
2022/10/30 16:10:41;;;;;;;14.63;7.17;;;20.60;99.90;;;;;;5052660;28;20634;-83
2022/10/30 16:13:16;;;;;;;16.43;7.47;;;20.50;99.90;;;;;;5050909;28;20483;-83
2022/10/30 16:15:43;;;;;;;17.00;8.43;;;20.40;99.90;;;;;;5051285;28;20435;-81
2022/10/30 16:18:41;;;;;;;19.87;10.40;;;20.30;99.90;;;;;;5049203;28;20570;-80
2022/10/30 16:21:09;;;;;;;22.73;12.13;;;20.20;99.90;;;;;;5027233;28;20896;-78
2022/10/30 16:23:40;;;;;;;20.77;13.23;;;20.10;99.90;;;;;;5051666;28;20430;-79
2022/10/30 16:26:21;;;;;;;17.13;12.50;;;20.10;99.90;;;;;;5050148;28;20429;-79
2022/10/30 16:28:46;;;;;;;17.47;11.50;;;20.00;99.90;;;;;;5050282;28;20429;-82
2022/10/30 16:31:14;;;;;;;15.33;11.40;;;20.00;99.90;;;;;;5050694;28;20434;-78
2022/10/30 16:33:43;;;;;;;19.77;12.43;;;19.90;99.90;;;;;;5046655;28;20187;-81
2022/10/30 16:36:13;;;;;;;25.00;13.57;;;19.90;99.90;;;;;;5047385;28;20427;-82
2022/10/30 16:38:39;;;;;;;21.20;15.37;;;19.90;99.90;;;;;;5048678;28;20445;-80
2022/10/30 16:41:12;;;;;;;19.27;13.30;;;19.80;99.90;;;;;;5051627;28;20968;-76
2022/10/30 16:43:39;;;;;;;23.87;16.27;;;19.80;99.90;;;;;;5050763;28;20512;-78
2022/10/30 16:46:14;;;;;;;35.13;19.33;;;19.80;99.90;;;;;;5049397;28;20448;-79
2022/10/30 16:48:56;;;;;;;17.37;11.23;;;19.80;99.90;;;;;;5049899;28;20421;-76
2022/10/30 16:51:22;;;;;;;13.50;8.70;;;19.70;99.90;;;;;;5050196;28;20480;-77
2022/10/30 16:53:50;;;;;;;14.90;9.13;;;19.70;99.90;;;;;;5051646;28;20820;-80
2022/10/30 16:56:30;;;;;;;14.80;9.60;;;19.70;99.90;;;;;;5051261;28;20187;-79
2022/10/30 16:59:11;;;;;;;13.23;9.37;;;19.70;99.90;;;;;;5048731;28;20820;-79
2022/10/30 17:01:37;;;;;;;13.57;10.40;;;19.70;99.90;;;;;;5051682;28;20968;-79
2022/10/30 17:04:03;;;;;;;16.23;8.37;;;19.70;99.90;;;;;;5051170;28;20567;-79
2022/10/30 17:06:42;;;;;;;13.33;7.03;;;19.70;99.90;;;;;;5050724;28;20596;-78
2022/10/30 17:09:29;;;;;;;14.60;6.97;;;19.70;99.90;;;;;;5052045;28;20421;-79